Aviation Digital Data Service (ADDS)

Output produced by METARs form (1219 UTC 15 December 2017)
found at http://aviationweather.gov/adds/metars/
 
KMSS 151130Z 1512/1612 VRB04KT P6SM FEW100 
     FM151500 18004KT P6SM BKN080 
     FM151900 20007KT P6SM VCSH OVC040